createdAt,value
2022-11-06T00:03:19.579Z,166.13
2022-11-06T00:08:30.740Z,125.07
2022-11-06T00:13:33.097Z,121.30
2022-11-06T00:18:36.789Z,115.47
2022-11-06T00:23:39.746Z,115.30
2022-11-06T00:28:42.435Z,122.30
2022-11-06T00:33:45.552Z,107.00
2022-11-06T00:38:51.255Z,99.33
2022-11-06T00:43:58.776Z,106.83
2022-11-06T00:49:01.172Z,101.93
2022-11-06T00:54:05.408Z,97.70
2022-11-06T00:59:11.570Z,87.17
2022-11-06T01:04:19.764Z,101.27
2022-11-06T01:09:24.572Z,102.10
2022-11-06T01:14:28.185Z,80.60
2022-11-06T01:19:30.590Z,84.43
2022-11-06T01:24:33.127Z,101.83
2022-11-06T01:29:36.014Z,105.23
2022-11-06T01:34:38.574Z,118.27
2022-11-06T01:39:40.969Z,96.17
2022-11-06T01:44:43.369Z,91.67
2022-11-06T01:49:46.480Z,79.33
2022-11-06T01:54:52.544Z,72.80
2022-11-06T01:59:56.062Z,107.67
2022-11-06T02:04:58.519Z,79.90
2022-11-06T02:10:00.937Z,77.67
2022-11-06T02:15:18.272Z,69.97
2022-11-06T02:20:35.718Z,94.67
2022-11-06T02:25:50.258Z,78.50
2022-11-06T02:30:54.238Z,57.37
2022-11-06T02:36:01.653Z,59.17
2022-11-06T02:41:09.618Z,76.63
2022-11-06T02:46:20.290Z,66.40
2022-11-06T02:51:26.327Z,58.40
2022-11-06T02:56:33.555Z,53.57
2022-11-06T03:01:47.099Z,48.83
2022-11-06T03:06:56.745Z,47.50
2022-11-06T03:12:14.179Z,51.40
2022-11-06T03:17:29.642Z,55.17
2022-11-06T03:23:01.063Z,53.83
2022-11-06T03:28:23.951Z,52.67
2022-11-06T03:33:42.928Z,60.17
2022-11-06T03:38:50.281Z,53.73
2022-11-06T03:43:56.331Z,53.30
2022-11-06T03:49:04.345Z,57.77
2022-11-06T03:54:17.356Z,59.47
2022-11-06T03:59:23.537Z,58.50
2022-11-06T04:04:35.315Z,53.87
2022-11-06T04:09:59.656Z,57.87
2022-11-06T04:15:03.233Z,57.83
2022-11-06T04:20:09.759Z,59.87
2022-11-06T04:25:37.602Z,66.50
2022-11-06T04:31:05.901Z,60.23
2022-11-06T04:36:32.311Z,58.67
2022-11-06T04:41:43.765Z,53.10
2022-11-06T04:46:53.233Z,47.77
2022-11-06T04:51:57.889Z,55.63
2022-11-06T04:57:01.078Z,49.27
2022-11-06T05:02:05.526Z,48.97
2022-11-06T05:07:08.849Z,56.10
2022-11-06T05:12:11.471Z,51.97
2022-11-06T05:17:13.919Z,59.07
2022-11-06T05:22:34.979Z,56.23
2022-11-06T05:27:37.438Z,83.43
2022-11-06T05:32:39.849Z,97.97
2022-11-06T05:37:42.234Z,59.57
2022-11-06T05:42:44.974Z,61.90
2022-11-06T05:47:47.411Z,75.97
2022-11-06T05:52:49.920Z,89.10
2022-11-06T05:57:52.365Z,101.33
2022-11-06T06:02:54.810Z,95.63
2022-11-06T06:07:57.336Z,82.40
2022-11-06T06:12:59.691Z,85.83
2022-11-06T06:18:02.094Z,85.23
2022-11-06T06:23:08.318Z,76.03
2022-11-06T06:28:12.089Z,75.53
2022-11-06T06:33:14.909Z,109.07
2022-11-06T06:38:17.251Z,132.73
2022-11-06T06:43:19.681Z,82.60
2022-11-06T06:48:22.063Z,74.13
2022-11-06T06:53:25.098Z,66.27
2022-11-06T06:58:29.148Z,64.37
2022-11-06T07:03:32.758Z,69.40
2022-11-06T07:08:35.262Z,70.63
2022-11-06T07:13:37.869Z,93.13
2022-11-06T07:18:41.044Z,106.87
2022-11-06T07:23:43.531Z,99.77
2022-11-06T07:28:47.449Z,105.00
2022-11-06T07:33:49.888Z,176.40
2022-11-06T07:38:52.338Z,165.70
2022-11-06T07:43:54.755Z,116.03
2022-11-06T07:48:57.193Z,109.97
2022-11-06T07:53:59.629Z,98.27
2022-11-06T07:59:02.044Z,92.60
2022-11-06T08:04:04.588Z,104.93
2022-11-06T08:09:08.419Z,108.03
2022-11-06T08:14:11.632Z,69.37
2022-11-06T08:19:14.101Z,44.70
2022-11-06T08:24:21.534Z,44.00
2022-11-06T08:29:24.373Z,30.43
2022-11-06T08:34:26.765Z,35.73
2022-11-06T08:39:29.752Z,42.07
2022-11-06T08:44:32.221Z,34.57
2022-11-06T08:49:34.683Z,37.63
2022-11-06T08:54:37.162Z,34.20
2022-11-06T08:59:42.102Z,45.13
2022-11-06T09:04:44.494Z,46.07
2022-11-06T09:09:46.903Z,42.30
2022-11-06T09:14:49.444Z,68.23
2022-11-06T09:19:54.960Z,29.50
2022-11-06T09:25:03.551Z,51.97
2022-11-06T09:30:07.291Z,31.83
2022-11-06T09:35:09.782Z,27.90
2022-11-06T09:40:29.922Z,32.77
2022-11-06T09:45:34.360Z,35.60
2022-11-06T09:50:47.301Z,30.73
2022-11-06T09:55:50.280Z,24.57
2022-11-06T10:00:54.374Z,28.83
2022-11-06T10:05:57.024Z,27.50
2022-11-06T10:11:14.683Z,28.10
2022-11-06T10:16:38.198Z,24.33
2022-11-06T10:22:16.509Z,24.40
2022-11-06T10:27:27.239Z,25.90
2022-11-06T10:32:47.338Z,20.10
2022-11-06T10:38:15.774Z,24.73
2022-11-06T10:43:34.822Z,20.17
2022-11-06T10:48:41.787Z,38.17
2022-11-06T10:54:05.890Z,31.60
2022-11-06T10:59:08.620Z,20.83
2022-11-06T11:04:11.282Z,23.57
2022-11-06T11:09:34.258Z,20.07
2022-11-06T11:14:36.702Z,16.80
2022-11-06T11:19:44.374Z,19.97
2022-11-06T11:25:08.538Z,23.53
2022-11-06T11:30:22.914Z,17.83
2022-11-06T11:35:30.850Z,22.47
2022-11-06T11:40:38.414Z,27.57
2022-11-06T11:45:40.818Z,15.07
2022-11-06T11:50:43.305Z,18.23
2022-11-06T11:55:49.066Z,25.47
2022-11-06T12:01:01.495Z,21.53
2022-11-06T12:06:07.975Z,26.20
2022-11-06T12:11:15.500Z,22.23
2022-11-06T12:16:20.163Z,18.73
2022-11-06T12:21:29.344Z,21.53
2022-11-06T12:26:48.337Z,18.93
2022-11-06T12:32:07.889Z,22.20
2022-11-06T12:37:44.621Z,23.33
2022-11-06T12:43:01.098Z,33.53
2022-11-06T12:48:22.836Z,27.47
2022-11-06T12:53:45.486Z,25.70
2022-11-06T12:59:03.345Z,19.13
2022-11-06T13:04:10.140Z,21.30
2022-11-06T13:09:24.371Z,30.37
2022-11-06T13:14:30.225Z,23.73
2022-11-06T13:20:04.885Z,17.97
2022-11-06T13:25:27.967Z,15.37
2022-11-06T13:30:31.804Z,17.40
2022-11-06T13:35:38.984Z,21.87
2022-11-06T13:40:44.365Z,20.10
2022-11-06T13:46:10.759Z,23.83
2022-11-06T13:51:38.504Z,16.43
2022-11-06T13:56:51.860Z,13.87
2022-11-06T14:02:22.405Z,16.50
2022-11-06T14:07:29.627Z,16.07
2022-11-06T14:12:32.133Z,17.53
2022-11-06T14:17:34.631Z,19.90
2022-11-06T14:22:38.338Z,20.50
2022-11-06T14:27:40.723Z,17.60
2022-11-06T14:32:47.017Z,22.33
2022-11-06T14:37:49.396Z,21.87
2022-11-06T14:42:51.813Z,65.53
2022-11-06T14:47:56.615Z,79.23
2022-11-06T14:53:19.717Z,94.03
2022-11-06T14:58:35.778Z,279.90
2022-11-06T15:03:51.226Z,144.27
2022-11-06T15:09:02.240Z,124.43
2022-11-06T15:14:08.848Z,70.57
2022-11-06T15:19:17.389Z,81.10
2022-11-06T15:24:23.730Z,150.10
2022-11-06T15:29:31.602Z,109.53
2022-11-06T15:34:51.109Z,60.37
2022-11-06T15:40:00.606Z,66.53
2022-11-06T15:45:15.657Z,105.07
2022-11-06T15:50:32.728Z,103.57
2022-11-06T15:55:38.490Z,87.43
2022-11-06T16:00:41.593Z,69.10
2022-11-06T16:05:45.742Z,72.03
2022-11-06T16:10:48.750Z,66.53
2022-11-06T16:16:00.573Z,75.13
2022-11-06T16:21:19.150Z,78.57
2022-11-06T16:26:35.660Z,125.83
2022-11-06T16:31:38.583Z,156.90
2022-11-06T16:36:58.830Z,178.33
2022-11-06T16:42:21.679Z,198.60
2022-11-06T16:47:24.082Z,221.67
2022-11-06T16:52:32.796Z,202.70
2022-11-06T16:57:53.295Z,181.07
2022-11-06T17:03:05.667Z,154.40
2022-11-06T17:08:27.730Z,113.63
2022-11-06T17:13:33.719Z,112.03
2022-11-06T17:18:38.107Z,107.97
2022-11-06T17:23:41.414Z,105.07
2022-11-06T17:28:44.022Z,117.50
2022-11-06T17:33:47.029Z,130.33
2022-11-06T17:38:49.535Z,133.90
2022-11-06T17:43:51.938Z,293.90
2022-11-06T17:48:55.267Z,167.63
2022-11-06T17:53:59.010Z,276.27
2022-11-06T17:59:01.429Z,286.37
2022-11-06T18:04:04.248Z,223.73
2022-11-06T18:09:08.133Z,164.50
2022-11-06T18:14:11.308Z,130.83
2022-11-06T18:19:17.525Z,136.63
2022-11-06T18:24:20.127Z,149.20
2022-11-06T18:29:22.571Z,148.17
2022-11-06T18:34:25.005Z,146.23
2022-11-06T18:39:27.480Z,144.30
2022-11-06T18:44:29.905Z,142.43
2022-11-06T18:49:32.363Z,149.23
2022-11-06T18:54:34.841Z,158.97
2022-11-06T18:59:37.220Z,138.47
2022-11-06T19:04:39.865Z,136.83
2022-11-06T19:09:42.637Z,135.03
2022-11-06T19:14:45.030Z,128.27
2022-11-06T19:19:47.636Z,104.70
2022-11-06T19:24:50.018Z,113.87
2022-11-06T19:29:52.756Z,120.70
2022-11-06T19:34:55.153Z,109.47
2022-11-06T19:40:02.750Z,166.43
2022-11-06T19:45:08.614Z,319.70
2022-11-06T19:50:11.213Z,523.53
2022-11-06T19:55:26.914Z,404.93
2022-11-06T20:00:33.296Z,360.57
2022-11-06T20:05:35.945Z,520.47
2022-11-06T20:10:38.597Z,373.37
2022-11-06T20:15:41.043Z,469.10
2022-11-06T20:20:43.455Z,470.40
2022-11-06T20:25:45.846Z,304.07
2022-11-06T20:30:49.018Z,403.10
2022-11-06T20:35:51.737Z,119.67
2022-11-06T20:40:57.046Z,67.83
2022-11-06T20:46:03.737Z,85.03
2022-11-06T20:51:09.130Z,71.43
2022-11-06T20:56:14.797Z,72.80
2022-11-06T21:01:20.327Z,84.37
2022-11-06T21:06:24.402Z,72.13
2022-11-06T21:11:27.707Z,74.17
2022-11-06T21:16:33.920Z,67.73
2022-11-06T21:21:39.645Z,68.67
2022-11-06T21:26:42.451Z,61.27
2022-11-06T21:31:49.195Z,56.27
2022-11-06T21:36:51.864Z,56.03
2022-11-06T21:41:54.242Z,51.33
2022-11-06T21:46:56.615Z,50.40
2022-11-06T21:52:18.985Z,44.43
2022-11-06T21:57:21.383Z,46.93
2022-11-06T22:02:23.915Z,52.00
2022-11-06T22:07:26.377Z,51.23
2022-11-06T22:12:28.812Z,72.33
2022-11-06T22:17:31.422Z,85.17
2022-11-06T22:22:33.849Z,73.30
2022-11-06T22:27:40.687Z,77.07
2022-11-06T22:32:43.512Z,83.97
2022-11-06T22:37:45.947Z,81.47
2022-11-06T22:42:50.017Z,73.13
2022-11-06T22:47:53.943Z,62.40
2022-11-06T22:52:56.319Z,61.87
2022-11-06T22:57:58.747Z,63.87
2022-11-06T23:03:01.420Z,64.20
2022-11-06T23:08:04.210Z,62.17
2022-11-06T23:13:07.114Z,60.80
2022-11-06T23:18:09.578Z,58.97
2022-11-06T23:23:12.117Z,54.07
2022-11-06T23:28:14.712Z,56.40
2022-11-06T23:33:17.302Z,61.13
2022-11-06T23:38:19.809Z,60.70
2022-11-06T23:43:22.214Z,52.60
2022-11-06T23:48:24.657Z,56.17
2022-11-06T23:53:27.050Z,48.13
2022-11-06T23:58:29.475Z,44.27
